Terminal Aerodrome Forecast
Issued by NWS Louisville, KY

Home | Current Version | Previous Version | Text Only | Print | Product List | Glossary On
Versions: 1 2 3 4 5 6 7 8 9 10 11 12 13 14 15 16
752
FTUS43 KLMK 192100 AAA
TAFSDF
TAF AMD
KSDF 192109Z 1921/2024 33008KT P6SM FEW250
     FM200100 36006KT P6SM FEW250
     FM201300 05006KT P6SM SCT250=

USA.gov is the U.S. government's official web portal to all federal, state and local government web resources and services.